Friday, October 31, 2014
11:26 UTC
  |  Log In   |  Register Free
Airport Search:

Fairfield County Airport
(KFDW)

Fairfield County Airport Diagram
No Airport Diagram Available

FAA data valid effective September 18, 2014 - November 13, 2014 (unless otherwise noted).

 
 
 
 
 
 
 
 
 
 
 
 
 
 

Current Aviation Weather for Fairfield County Airport (KFDW)

The most recent METAR observation for KFDW was updated at: 1113
METAR Summary (Translated METAR)
KFDW
311115Z AUTO 02004KT 10SM CLR 06/05 A2992 RMK AO1
KCUB
311053Z AUTO 06003KT 10SM CLR 09/06 A2992 RMK AO2 SLP131 T00890061
(21.5 nm SE from KFDW)
KCAE
311056Z 00000KT 10SM CLR 06/03 A2992 RMK AO2 SLP129 T00560033
(22.6 nm SW from KFDW)
TAF Summary (Translated TAF)
KCUB
(21.5 nm SE from KFDW)
310856Z 3109/0106 00000KT P6SM SKC FM311800 VRB03KT P6SM SCT050 FM312100 VRB03KT P6SM VCSH OVC050 FM010400 30008KT P6SM -SHRA OVC045
KCAE
(22.6 nm SW from KFDW)
310856Z 3109/0106 VRB03KT P6SM SKC FM311800 VRB05KT P6SM SCT050 FM312100 28005KT P6SM VCSH OVC050 FM010400 30008KT P6SM -SHRA OVC045
  Airport Weather Conditions for KFDW

 Current Weather at FDW
45° F
Fair
North winds at 0.0 mph
FDW NOAA Radar

Pressure: 29.92 in
Humidity: 87%
Wind: Calm
Dew Point: 41.0°F
Visibility: 10.00 mi


Airport Weather Forecast for KFDW

Translated METAR and TAF for KFDW
Translated METAR for KFDW (1121 UTC 31 October 2014)
found at http://aviationweather.gov/adds/metars/
 
METAR text: KFDW 311115Z AUTO 02004KT 10SM CLR 06/05 A2992 RMK AO1
Conditions at: KFDW (WINNSBORO , SC, US) observed 1115 UTC 31 October 2014
Temperature: 6.0°C (43°F)
Dewpoint: 5.0°C (41°F) [RH = 93%]
Pressure (altimeter): 29.92 inches Hg (1013.3 mb)
Winds: from the NNE (20 degrees) at 5 MPH (4 knots; 2.1 m/s)
Visibility: 10 or more miles (16+ km)
Ceiling: at least 12,000 feet AGL
Clouds: sky clear below 12,000 feet AGL
Weather: automated observation with no human augmentation;
there may or may not be significant weather present at this time
Translated TAF for KFDW

There is no translated TAF available for this airport

Find All Airport Services Find A Hotel Find A Rental Car Find A Golf Course Find A Restaurant $100 Hamburger



FBO's on the Field
FBO Company Facility Photos Services Transportation Aviation Fuel Prices: Prices include tax
Catering Weather Repair Courtesy Rental Type 100LL JetA JetA+ MOGAS 8087
 
S & S Aviation Services

This FBO has not yet been rated
FS:Shell
Last Updated: Oct-09
Login to update fuel prices
SS:
Contact S & S Aviation ServicesMore FBO Information
 
Add another FBO Facility Photos Catering Weather Repair Courtesy Rental Type 100LL JetA JetA+ MOGAS 8087
Services Transportation Aviation Fuel Prices: Prices include tax


model-print
model-print
model-print
model-print